Time;durP1;ratioP1;P1;durP2;ratioP2;P2;SDS_P1;SDS_P2;PMS_P1;PMS_P2;Temp;Humidity;BMP_temperature;BMP_pressure;BME280_temperature;BME280_humidity;BME280_pressure;Samples;Min_cycle;Max_cycle;Signal;HPM_P1;HPM_P2
2021/08/28 00:02:14;;;;;;;2.67;2.47;;;13.70;99.90;;;;;;5066021;28;20655;-79
2021/08/28 00:04:43;;;;;;;3.03;2.73;;;13.70;99.90;;;;;;5070746;28;21047;-79
2021/08/28 00:07:12;;;;;;;4.40;3.00;;;13.70;99.90;;;;;;5071648;28;20622;-79
2021/08/28 00:09:42;;;;;;;3.30;3.03;;;13.70;99.90;;;;;;5070463;28;21007;-79
2021/08/28 00:12:11;;;;;;;3.03;2.77;;;13.70;99.90;;;;;;5071444;28;20621;-79
2021/08/28 00:14:39;;;;;;;5.77;2.87;;;13.70;99.90;;;;;;5051030;28;20626;-79
2021/08/28 00:17:08;;;;;;;4.80;3.33;;;13.80;99.90;;;;;;5051769;28;20683;-79
2021/08/28 00:19:36;;;;;;;5.33;3.60;;;13.70;99.90;;;;;;5061108;28;20637;-79
2021/08/28 00:22:04;;;;;;;5.50;3.30;;;13.70;99.90;;;;;;5070588;28;20624;-79
2021/08/28 00:24:33;;;;;;;3.90;2.93;;;13.80;99.90;;;;;;5069912;28;20647;-79
2021/08/28 00:27:01;;;;;;;4.83;3.23;;;13.70;99.90;;;;;;5056752;28;20663;-79
2021/08/28 00:29:28;;;;;;;3.87;3.57;;;13.70;99.90;;;;;;5059364;28;20775;-79
2021/08/28 00:31:55;;;;;;;4.20;3.20;;;13.70;99.90;;;;;;5068925;28;20625;-79
2021/08/28 00:34:23;;;;;;;4.50;3.67;;;13.70;99.90;;;;;;5053072;28;20949;-79
2021/08/28 00:36:51;;;;;;;7.07;4.13;;;13.80;99.90;;;;;;5061827;28;20625;-79
2021/08/28 00:39:18;;;;;;;3.73;3.43;;;13.70;99.90;;;;;;5056749;28;21192;-79
2021/08/28 00:41:46;;;;;;;4.60;4.27;;;13.80;99.90;;;;;;5050820;28;20637;-79
2021/08/28 00:44:14;;;;;;;3.17;2.97;;;13.80;99.90;;;;;;5050940;28;20729;-79
2021/08/28 00:46:41;;;;;;;4.23;3.83;;;13.70;99.90;;;;;;5051083;28;20629;-79
2021/08/28 00:49:08;;;;;;;3.87;3.10;;;13.70;99.90;;;;;;5060487;28;20666;-79
2021/08/28 00:51:36;;;;;;;3.90;3.63;;;13.70;99.90;;;;;;5066185;28;20626;-79
2021/08/28 00:54:03;;;;;;;4.17;3.80;;;13.60;99.90;;;;;;5060085;28;20694;-79
2021/08/28 00:56:30;;;;;;;4.10;3.73;;;13.60;99.90;;;;;;5064837;28;20722;-79
2021/08/28 00:58:57;;;;;;;3.67;3.37;;;13.70;99.90;;;;;;5067690;28;21178;-79
2021/08/28 01:01:32;;;;;;;3.60;3.30;;;13.60;99.90;;;;;;5069499;28;20677;-79
2021/08/28 01:04:06;;;;;;;3.90;3.50;;;13.60;99.90;;;;;;5059652;28;21006;-79
2021/08/28 01:06:45;;;;;;;4.13;3.67;;;13.60;99.90;;;;;;5057293;28;20633;-79
2021/08/28 01:09:21;;;;;;;3.00;2.80;;;13.60;99.90;;;;;;5064645;28;21245;-79
2021/08/28 01:11:57;;;;;;;4.13;3.13;;;13.60;99.90;;;;;;5049961;28;20626;-79
2021/08/28 01:14:27;;;;;;;3.30;3.10;;;13.50;99.90;;;;;;5050552;28;20973;-79
2021/08/28 01:16:59;;;;;;;3.23;2.70;;;13.50;99.90;;;;;;5058899;28;20620;-79
2021/08/28 01:19:42;;;;;;;5.73;3.57;;;13.50;99.90;;;;;;5050224;28;20645;-79
2021/08/28 01:22:17;;;;;;;4.90;3.30;;;13.40;99.90;;;;;;5049786;28;20630;-79
2021/08/28 01:24:48;;;;;;;5.23;3.30;;;13.40;99.90;;;;;;5049543;28;20629;-79
2021/08/28 01:27:23;;;;;;;3.70;3.40;;;13.50;99.90;;;;;;5050267;28;20741;-79
2021/08/28 01:29:58;;;;;;;3.93;3.17;;;13.50;99.90;;;;;;5060897;28;20656;-79
2021/08/28 01:32:31;;;;;;;3.40;3.10;;;13.60;99.90;;;;;;5065842;28;20632;-78
2021/08/28 01:35:08;;;;;;;3.73;3.43;;;13.50;99.90;;;;;;5049046;28;20626;-79
2021/08/28 01:37:41;;;;;;;5.77;3.40;;;13.50;99.90;;;;;;5054122;28;20996;-79
2021/08/28 01:40:16;;;;;;;3.90;3.40;;;13.50;99.90;;;;;;5070002;28;20640;-79
2021/08/28 01:42:47;;;;;;;4.40;4.00;;;13.50;99.90;;;;;;5069619;28;20698;-78
2021/08/28 01:45:23;;;;;;;3.60;3.30;;;13.50;99.90;;;;;;5069652;28;20637;-79
2021/08/28 01:47:53;;;;;;;3.83;3.53;;;13.50;99.90;;;;;;5053373;28;20626;-79
2021/08/28 01:50:24;;;;;;;4.10;3.70;;;13.60;99.90;;;;;;5051196;28;20673;-79
2021/08/28 01:52:53;;;;;;;3.80;3.47;;;13.60;99.90;;;;;;5059965;28;20649;-79
2021/08/28 01:55:22;;;;;;;5.30;3.73;;;13.60;99.90;;;;;;5052169;28;20633;-79
2021/08/28 01:57:51;;;;;;;4.70;3.70;;;13.60;99.90;;;;;;5062402;28;20627;-79
2021/08/28 02:00:24;;;;;;;4.63;4.20;;;13.60;99.90;;;;;;5069317;28;20680;-79
2021/08/28 02:02:53;;;;;;;4.50;4.10;;;13.60;99.90;;;;;;5069703;28;20613;-79
2021/08/28 02:05:22;;;;;;;4.70;4.23;;;13.60;99.90;;;;;;5060548;28;20628;-79
2021/08/28 02:07:53;;;;;;;3.93;3.63;;;13.60;99.90;;;;;;5070212;28;20643;-79
2021/08/28 02:10:24;;;;;;;4.37;3.37;;;13.60;99.90;;;;;;5073219;28;21443;-79
2021/08/28 02:13:03;;;;;;;3.70;3.40;;;13.60;99.90;;;;;;5072796;28;20634;-79
2021/08/28 02:15:38;;;;;;;4.73;4.20;;;13.60;99.90;;;;;;5065477;28;21239;-79
2021/08/28 02:18:17;;;;;;;4.00;3.70;;;13.60;99.90;;;;;;5065186;28;20698;-79
2021/08/28 02:20:51;;;;;;;5.30;4.47;;;13.60;99.90;;;;;;5060221;28;21257;-79
2021/08/28 02:23:36;;;;;;;4.07;3.67;;;13.60;99.90;;;;;;5054895;28;21189;-79
2021/08/28 02:26:13;;;;;;;5.23;4.83;;;13.60;99.90;;;;;;5053666;28;20694;-79
2021/08/28 02:28:55;;;;;;;4.90;4.33;;;13.50;99.90;;;;;;5055089;28;20688;-79
2021/08/28 02:31:34;;;;;;;6.77;4.80;;;13.50;99.90;;;;;;5055412;28;20744;-79
2021/08/28 02:34:05;;;;;;;6.00;5.27;;;13.60;99.90;;;;;;5060494;28;20629;-79
2021/08/28 02:36:38;;;;;;;7.73;5.27;;;13.50;99.90;;;;;;5060506;28;20669;-79
2021/08/28 02:39:09;;;;;;;6.53;5.70;;;13.40;99.90;;;;;;5070340;28;20775;-79
2021/08/28 02:41:39;;;;;;;6.90;6.13;;;13.50;99.90;;;;;;5054448;28;20196;-79
2021/08/28 02:44:08;;;;;;;5.60;5.10;;;13.50;99.90;;;;;;5054075;28;20638;-79
2021/08/28 02:46:38;;;;;;;5.97;5.23;;;13.50;99.90;;;;;;5053576;28;20636;-79
2021/08/28 02:49:08;;;;;;;5.47;4.97;;;13.50;99.90;;;;;;5053569;28;21191;-79
2021/08/28 02:51:40;;;;;;;5.60;5.10;;;13.50;99.90;;;;;;5067151;28;20977;-79
2021/08/28 02:54:13;;;;;;;6.33;4.93;;;13.40;99.90;;;;;;5063623;28;20622;-79
2021/08/28 02:56:47;;;;;;;6.73;5.53;;;13.40;99.90;;;;;;5059144;28;20626;-79
2021/08/28 02:59:18;;;;;;;7.33;6.63;;;13.50;99.90;;;;;;5063525;28;20722;-78
2021/08/28 03:01:48;;;;;;;7.77;7.00;;;13.40;99.90;;;;;;5058266;28;20617;-79
2021/08/28 03:04:23;;;;;;;7.73;6.90;;;13.50;99.90;;;;;;5066885;28;20627;-79
2021/08/28 03:06:54;;;;;;;8.47;6.60;;;13.50;99.90;;;;;;5063225;28;20661;-79
2021/08/28 03:09:28;;;;;;;7.70;7.00;;;13.40;99.90;;;;;;5068882;28;21288;-79
2021/08/28 03:11:59;;;;;;;11.30;7.00;;;13.50;99.90;;;;;;5052254;28;20703;-79
2021/08/28 03:14:27;;;;;;;12.03;8.97;;;13.50;99.90;;;;;;5063268;28;20626;-79
2021/08/28 03:16:58;;;;;;;9.40;8.43;;;13.50;99.90;;;;;;5052377;28;20654;-79
2021/08/28 03:19:29;;;;;;;9.60;8.03;;;13.50;99.90;;;;;;5070677;28;21270;-79
2021/08/28 03:22:01;;;;;;;8.80;8.00;;;13.40;99.90;;;;;;5052455;28;20622;-79
2021/08/28 03:24:30;;;;;;;9.90;9.00;;;13.50;99.90;;;;;;5052637;28;20626;-79
2021/08/28 03:26:59;;;;;;;10.47;9.33;;;13.40;99.90;;;;;;5066887;28;21182;-79
2021/08/28 03:29:28;;;;;;;11.87;9.30;;;13.30;99.90;;;;;;5072014;28;20660;-79
2021/08/28 03:32:00;;;;;;;12.33;9.70;;;13.30;99.90;;;;;;5051654;28;20633;-79
2021/08/28 03:34:29;;;;;;;11.57;9.53;;;13.40;99.90;;;;;;5052248;28;20639;-79
2021/08/28 03:36:59;;;;;;;14.40;10.37;;;13.30;99.90;;;;;;5052610;28;20617;-79
2021/08/28 03:39:32;;;;;;;16.17;13.67;;;13.40;99.90;;;;;;5052164;28;20647;-79
2021/08/28 03:42:01;;;;;;;12.47;11.13;;;13.40;99.90;;;;;;5050986;28;20983;-79
2021/08/28 03:44:41;;;;;;;15.03;11.23;;;13.40;99.90;;;;;;5052534;28;20620;-79
2021/08/28 03:47:17;;;;;;;14.77;11.50;;;13.40;99.90;;;;;;5052565;28;20625;-78
2021/08/28 03:49:46;;;;;;;14.13;11.30;;;13.30;99.90;;;;;;5052187;28;20659;-79
2021/08/28 03:52:16;;;;;;;15.33;11.90;;;13.30;99.90;;;;;;5057205;28;20638;-79
2021/08/28 03:54:46;;;;;;;15.60;13.17;;;13.30;99.90;;;;;;5059422;28;20621;-79
2021/08/28 03:57:18;;;;;;;14.17;12.50;;;13.30;99.90;;;;;;5053682;28;20626;-79
2021/08/28 04:00:02;;;;;;;14.90;12.67;;;13.40;99.90;;;;;;5053105;28;20647;-79
2021/08/28 04:02:46;;;;;;;15.60;12.10;;;13.40;99.90;;;;;;5052587;28;20728;-79
2021/08/28 04:05:22;;;;;;;13.90;11.97;;;13.50;99.90;;;;;;5052192;28;20683;-79
2021/08/28 04:07:57;;;;;;;14.70;12.80;;;13.50;99.90;;;;;;5068655;28;20658;-79
2021/08/28 04:10:35;;;;;;;15.40;12.97;;;13.40;99.90;;;;;;5056868;28;20759;-78
2021/08/28 04:13:06;;;;;;;14.83;13.27;;;13.30;99.90;;;;;;5066327;28;20644;-79
2021/08/28 04:15:43;;;;;;;14.33;12.77;;;13.30;99.90;;;;;;5071194;28;21194;-79
2021/08/28 04:18:22;;;;;;;14.43;12.73;;;13.30;99.90;;;;;;5070817;28;20643;-79
2021/08/28 04:21:02;;;;;;;18.67;14.70;;;13.30;99.90;;;;;;5070914;28;20628;-79
2021/08/28 04:23:41;;;;;;;16.27;12.73;;;13.30;99.90;;;;;;5058386;28;20632;-79
2021/08/28 04:26:13;;;;;;;29.40;22.90;;;13.20;99.90;;;;;;5057955;28;21052;-80
2021/08/28 04:28:56;;;;;;;14.70;12.50;;;13.20;99.90;;;;;;5060823;28;20625;-80
2021/08/28 04:31:32;;;;;;;13.97;12.13;;;13.20;99.90;;;;;;5064964;28;20688;-79
2021/08/28 04:34:07;;;;;;;15.60;13.10;;;13.20;99.90;;;;;;5065139;28;21197;-79
2021/08/28 04:36:47;;;;;;;15.90;13.07;;;13.10;99.90;;;;;;5069852;28;20649;-79
2021/08/28 04:39:20;;;;;;;14.17;11.97;;;13.00;99.90;;;;;;5071517;28;20624;-79
2021/08/28 04:41:51;;;;;;;17.80;13.80;;;13.00;99.90;;;;;;5070586;28;20644;-80
2021/08/28 04:44:29;;;;;;;14.80;13.23;;;13.00;99.90;;;;;;5053224;28;20628;-79
2021/08/28 04:47:00;;;;;;;13.13;11.73;;;13.00;99.90;;;;;;5050632;28;20771;-79
2021/08/28 04:49:40;;;;;;;15.10;13.30;;;13.00;99.90;;;;;;5050757;28;21030;-79
2021/08/28 04:52:17;;;;;;;14.10;11.97;;;13.00;99.90;;;;;;5051537;28;21176;-79
2021/08/28 04:54:52;;;;;;;14.50;12.47;;;13.00;99.90;;;;;;5050888;28;20694;-79
2021/08/28 04:57:27;;;;;;;15.40;12.47;;;13.00;99.90;;;;;;5050752;28;20609;-79
2021/08/28 05:00:05;;;;;;;15.77;13.13;;;13.00;99.90;;;;;;5050061;28;20671;-79
2021/08/28 05:02:42;;;;;;;17.57;14.73;;;13.10;99.90;;;;;;5050076;28;20622;-79
2021/08/28 05:05:16;;;;;;;17.47;15.60;;;13.20;99.90;;;;;;5050493;28;20736;-79
2021/08/28 05:07:46;;;;;;;17.73;14.53;;;13.10;99.90;;;;;;5051467;28;20675;-79
2021/08/28 05:10:18;;;;;;;18.77;14.93;;;13.20;99.90;;;;;;5050677;28;20657;-79
2021/08/28 05:12:48;;;;;;;16.03;14.07;;;13.30;99.90;;;;;;5062228;28;21205;-79
2021/08/28 05:15:17;;;;;;;19.13;14.03;;;13.30;99.90;;;;;;5060702;28;20690;-79
2021/08/28 05:17:46;;;;;;;16.03;14.33;;;13.30;99.90;;;;;;5056737;28;20625;-79
2021/08/28 05:20:16;;;;;;;15.43;13.30;;;13.30;99.90;;;;;;5050088;28;21007;-79
2021/08/28 05:22:44;;;;;;;16.37;13.20;;;13.30;99.90;;;;;;5049703;28;21299;-79
2021/08/28 05:25:12;;;;;;;15.47;13.83;;;13.30;99.90;;;;;;5061258;28;20706;-79
2021/08/28 05:27:43;;;;;;;20.43;15.67;;;13.30;99.90;;;;;;5055832;28;20636;-79
2021/08/28 05:30:17;;;;;;;18.00;14.20;;;13.40;99.90;;;;;;5051373;28;20779;-78
2021/08/28 05:32:49;;;;;;;18.20;14.40;;;13.30;99.90;;;;;;5051673;28;21135;-80
2021/08/28 05:35:47;;;;;;;17.47;14.73;;;13.30;99.90;;;;;;5057577;28;20641;-81
2021/08/28 05:38:23;;;;;;;20.37;15.17;;;13.40;99.90;;;;;;5055220;28;20629;-79
2021/08/28 05:41:00;;;;;;;17.07;14.00;;;13.20;99.90;;;;;;5056765;28;20626;-80
2021/08/28 05:43:32;;;;;;;17.80;15.30;;;13.20;99.90;;;;;;5058531;28;20618;-80
2021/08/28 05:46:06;;;;;;;21.90;15.70;;;13.20;99.90;;;;;;5060982;28;20656;-81
2021/08/28 05:48:36;;;;;;;14.07;12.60;;;13.20;99.90;;;;;;5055572;28;20652;-81
2021/08/28 05:51:15;;;;;;;19.30;14.87;;;13.30;99.90;;;;;;5053227;28;20663;-81
2021/08/28 05:53:48;;;;;;;19.10;15.30;;;13.30;99.90;;;;;;5059396;28;20721;-81
2021/08/28 05:56:21;;;;;;;14.30;12.60;;;13.30;99.90;;;;;;5057926;28;20627;-81
2021/08/28 05:58:57;;;;;;;20.23;13.93;;;13.40;99.90;;;;;;5061277;28;20625;-80
2021/08/28 06:01:25;;;;;;;16.90;13.43;;;13.40;99.90;;;;;;5054251;28;21268;-79
2021/08/28 06:03:56;;;;;;;16.47;14.23;;;13.40;99.90;;;;;;5055251;28;20634;-79
2021/08/28 06:06:28;;;;;;;19.10;14.90;;;13.30;99.90;;;;;;5059522;28;21409;-78
2021/08/28 06:08:58;;;;;;;16.30;13.63;;;13.40;99.90;;;;;;5055640;28;21248;-79
2021/08/28 06:11:26;;;;;;;14.73;12.50;;;13.50;99.90;;;;;;5067063;28;20710;-79
2021/08/28 06:13:55;;;;;;;16.10;13.30;;;13.40;99.90;;;;;;5069179;28;20637;-79
2021/08/28 06:16:27;;;;;;;15.63;13.63;;;13.50;99.90;;;;;;5058095;28;20634;-79
2021/08/28 06:19:00;;;;;;;13.80;12.30;;;13.50;99.90;;;;;;5060815;28;20701;-78
2021/08/28 06:21:33;;;;;;;14.23;12.30;;;13.40;99.90;;;;;;5065318;28;20983;-79
2021/08/28 06:24:02;;;;;;;14.43;12.90;;;13.40;99.90;;;;;;5055423;28;21283;-80
2021/08/28 06:26:32;;;;;;;15.10;11.87;;;13.40;99.90;;;;;;5056817;28;20770;-79
2021/08/28 06:29:04;;;;;;;14.57;12.80;;;13.40;99.90;;;;;;5056777;28;20637;-78
2021/08/28 06:31:33;;;;;;;13.30;11.90;;;13.50;99.90;;;;;;5056112;28;20720;-79
2021/08/28 06:34:01;;;;;;;14.50;12.97;;;13.60;99.90;;;;;;5051493;28;20633;-78
2021/08/28 06:36:31;;;;;;;13.10;11.80;;;13.40;99.90;;;;;;5055378;28;20727;-78
2021/08/28 06:38:58;;;;;;;15.73;12.43;;;13.40;99.90;;;;;;5067145;28;20620;-78
2021/08/28 06:41:27;;;;;;;14.97;12.67;;;13.60;99.90;;;;;;5057520;28;20638;-78
2021/08/28 06:43:55;;;;;;;12.97;11.23;;;13.60;99.90;;;;;;5058816;28;20773;-78
2021/08/28 06:46:26;;;;;;;14.20;11.77;;;13.50;99.90;;;;;;5061531;28;20640;-79
2021/08/28 06:48:53;;;;;;;10.90;9.80;;;13.50;99.90;;;;;;5066516;28;21254;-79
2021/08/28 06:51:20;;;;;;;12.53;11.23;;;13.50;99.90;;;;;;5069006;28;21252;-78
2021/08/28 06:53:50;;;;;;;12.80;11.50;;;13.50;99.90;;;;;;5050606;28;20641;-78
2021/08/28 06:56:17;;;;;;;14.13;12.30;;;13.60;99.90;;;;;;5052009;28;21190;-78
2021/08/28 06:58:44;;;;;;;13.33;11.93;;;13.60;99.90;;;;;;5052495;28;20618;-79
2021/08/28 07:01:11;;;;;;;12.33;10.60;;;13.60;99.90;;;;;;5052047;28;21151;-79
2021/08/28 07:03:38;;;;;;;12.80;11.40;;;13.80;99.90;;;;;;5052864;28;20721;-79
2021/08/28 07:06:05;;;;;;;13.33;11.90;;;13.70;99.90;;;;;;5055330;28;20657;-78
2021/08/28 07:08:32;;;;;;;11.50;10.30;;;13.70;99.90;;;;;;5072457;28;20624;-79
2021/08/28 07:11:00;;;;;;;13.43;12.03;;;14.00;99.90;;;;;;5054802;28;20668;-78
2021/08/28 07:13:28;;;;;;;11.00;9.73;;;14.20;99.90;;;;;;5052587;28;20700;-79
2021/08/28 07:15:55;;;;;;;10.23;9.27;;;14.20;99.90;;;;;;5052729;28;20729;-79
2021/08/28 07:18:22;;;;;;;9.73;8.70;;;14.30;99.90;;;;;;5060082;28;20630;-79
2021/08/28 07:20:49;;;;;;;11.37;9.90;;;14.20;99.90;;;;;;5052160;28;20615;-79
2021/08/28 07:23:17;;;;;;;9.60;8.63;;;14.40;99.90;;;;;;5052152;28;21032;-78
2021/08/28 07:25:44;;;;;;;8.57;7.77;;;14.50;99.90;;;;;;5052770;28;20675;-79
2021/08/28 07:28:13;;;;;;;8.40;7.60;;;14.40;99.90;;;;;;5052721;28;20621;-79
2021/08/28 07:30:41;;;;;;;7.87;7.17;;;14.50;99.90;;;;;;5052580;28;20606;-79
2021/08/28 07:33:08;;;;;;;11.77;7.23;;;14.70;99.90;;;;;;5051779;28;20672;-79
2021/08/28 07:35:35;;;;;;;9.13;8.23;;;14.60;99.90;;;;;;5052071;28;20619;-79
2021/08/28 07:38:02;;;;;;;7.33;6.60;;;14.60;99.90;;;;;;5052860;28;20602;-79
2021/08/28 07:40:29;;;;;;;6.67;5.97;;;14.60;99.90;;;;;;5051538;28;20699;-79
2021/08/28 07:42:58;;;;;;;8.23;6.37;;;14.70;99.90;;;;;;5051754;28;20630;-79
2021/08/28 07:45:27;;;;;;;6.50;5.90;;;14.60;99.90;;;;;;5052358;28;20977;-79
2021/08/28 07:47:55;;;;;;;7.70;7.00;;;14.60;99.90;;;;;;5051866;28;20610;-78
2021/08/28 07:50:22;;;;;;;6.40;5.80;;;14.70;99.90;;;;;;5052054;28;20725;-79
2021/08/28 07:52:50;;;;;;;7.37;6.67;;;14.90;99.90;;;;;;5065010;28;20661;-79
2021/08/28 07:55:17;;;;;;;6.10;5.47;;;15.00;99.90;;;;;;5070502;28;20610;-79
2021/08/28 07:57:45;;;;;;;5.07;4.67;;;15.20;99.90;;;;;;5052089;28;20665;-80
2021/08/28 08:00:14;;;;;;;5.67;5.17;;;15.40;99.90;;;;;;5051797;28;20709;-79
2021/08/28 08:02:42;;;;;;;5.60;4.27;;;15.70;99.90;;;;;;5050036;28;20618;-79
2021/08/28 08:05:10;;;;;;;4.93;4.07;;;15.50;99.90;;;;;;5052205;28;20622;-79
2021/08/28 08:07:39;;;;;;;4.80;4.40;;;15.50;99.90;;;;;;5067119;28;20710;-79
2021/08/28 08:10:07;;;;;;;6.43;4.07;;;15.60;99.90;;;;;;5061518;28;21036;-79
2021/08/28 08:12:34;;;;;;;5.17;4.13;;;15.60;99.90;;;;;;5051371;28;20658;-79
2021/08/28 08:15:02;;;;;;;3.30;3.10;;;15.30;99.90;;;;;;5070835;28;21247;-79
2021/08/28 08:17:28;;;;;;;4.63;4.20;;;15.10;99.90;;;;;;5059908;28;20654;-78
2021/08/28 08:19:57;;;;;;;5.07;4.67;;;14.80;99.90;;;;;;5051664;28;20998;-79
2021/08/28 08:22:24;;;;;;;4.47;4.07;;;14.70;99.90;;;;;;5051038;28;20745;-79
2021/08/28 08:24:51;;;;;;;4.23;3.93;;;14.60;99.90;;;;;;5071466;28;21249;-79
2021/08/28 08:27:18;;;;;;;4.17;3.77;;;14.50;99.90;;;;;;5070609;28;20641;-79
2021/08/28 08:29:45;;;;;;;5.33;4.83;;;14.60;99.90;;;;;;5069838;28;20620;-79
2021/08/28 08:32:12;;;;;;;5.23;4.70;;;14.80;99.90;;;;;;5068310;28;21171;-79
2021/08/28 08:34:39;;;;;;;5.30;4.90;;;14.90;99.90;;;;;;5051491;28;20610;-79
2021/08/28 08:37:07;;;;;;;4.80;4.33;;;14.90;99.90;;;;;;5051362;28;20978;-78
2021/08/28 08:39:34;;;;;;;4.80;4.03;;;14.90;99.90;;;;;;5051199;28;20621;-78
2021/08/28 08:42:02;;;;;;;3.77;3.47;;;14.90;99.90;;;;;;5049269;28;20994;-79
2021/08/28 08:44:31;;;;;;;4.40;4.10;;;14.90;99.90;;;;;;5050841;28;20627;-79
2021/08/28 08:46:59;;;;;;;4.10;3.80;;;15.00;99.90;;;;;;5051565;28;20626;-79
2021/08/28 08:49:26;;;;;;;4.77;4.33;;;14.90;99.90;;;;;;5051205;28;20618;-79
2021/08/28 08:51:54;;;;;;;4.70;4.30;;;14.70;99.90;;;;;;5050709;28;20614;-79
2021/08/28 08:54:22;;;;;;;4.53;4.20;;;14.60;99.90;;;;;;5050916;28;20621;-79
2021/08/28 08:56:49;;;;;;;3.80;3.50;;;14.60;99.90;;;;;;5064878;28;20709;-78
2021/08/28 08:59:16;;;;;;;4.70;4.27;;;14.60;99.90;;;;;;5071134;28;20676;-79
2021/08/28 09:01:44;;;;;;;5.20;4.10;;;14.50;99.90;;;;;;5070356;28;20653;-79
2021/08/28 09:04:12;;;;;;;4.53;4.17;;;14.50;99.90;;;;;;5070411;28;20601;-79
2021/08/28 09:06:39;;;;;;;4.33;4.03;;;14.60;99.90;;;;;;5070795;28;20728;-79
2021/08/28 09:09:06;;;;;;;4.73;4.30;;;14.60;99.90;;;;;;5067709;28;21057;-79
2021/08/28 09:11:34;;;;;;;3.90;3.60;;;14.90;99.90;;;;;;5079990;28;20613;-79
2021/08/28 09:14:17;;;;;;;3.47;3.27;;;14.80;99.90;;;;;;5070335;28;20606;-79
2021/08/28 09:16:44;;;;;;;3.10;2.80;;;14.80;99.90;;;;;;5065006;28;20668;-79
2021/08/28 09:19:11;;;;;;;3.20;3.00;;;14.90;99.90;;;;;;5069103;28;20978;-79
2021/08/28 09:21:38;;;;;;;3.03;2.83;;;14.80;99.90;;;;;;5070298;28;20656;-78
2021/08/28 09:24:08;;;;;;;3.27;3.00;;;14.70;99.90;;;;;;5070218;28;20744;-79
2021/08/28 09:26:38;;;;;;;3.30;3.10;;;15.00;99.90;;;;;;5070726;28;20618;-79
2021/08/28 09:29:07;;;;;;;3.83;3.53;;;15.00;99.90;;;;;;5070660;28;21272;-78
2021/08/28 09:31:39;;;;;;;3.37;3.07;;;14.90;99.90;;;;;;5070205;28;20624;-78
2021/08/28 09:34:22;;;;;;;3.17;2.60;;;14.80;99.90;;;;;;5051475;28;20618;-78
2021/08/28 09:36:59;;;;;;;2.90;2.70;;;15.00;99.90;;;;;;5050567;28;20669;-78
2021/08/28 09:39:40;;;;;;;2.87;2.57;;;15.20;99.90;;;;;;5049996;28;20614;-78
2021/08/28 09:42:10;;;;;;;2.53;2.43;;;15.20;99.90;;;;;;5048669;28;20646;-78
2021/08/28 09:44:38;;;;;;;4.30;3.97;;;15.40;99.90;;;;;;5049525;28;20730;-78
2021/08/28 09:47:11;;;;;;;3.20;3.00;;;15.30;99.90;;;;;;5050051;28;21185;-78
2021/08/28 09:49:39;;;;;;;2.40;2.30;;;15.10;99.90;;;;;;5049793;28;20623;-78
2021/08/28 09:52:10;;;;;;;2.43;2.23;;;14.90;99.90;;;;;;5049320;28;20738;-78
2021/08/28 09:54:38;;;;;;;3.07;2.77;;;15.00;99.90;;;;;;5050277;28;20615;-78
2021/08/28 09:57:05;;;;;;;2.53;2.33;;;15.00;99.90;;;;;;5066290;28;20670;-78
2021/08/28 09:59:33;;;;;;;3.47;3.17;;;14.90;99.90;;;;;;5069661;28;20606;-78
2021/08/28 10:02:04;;;;;;;4.13;3.83;;;14.70;99.90;;;;;;5069190;28;20652;-78
2021/08/28 10:04:30;;;;;;;3.20;3.00;;;14.40;99.90;;;;;;5069798;28;20606;-78
2021/08/28 10:06:59;;;;;;;2.60;2.40;;;14.30;99.90;;;;;;5069940;28;20763;-78
2021/08/28 10:09:28;;;;;;;3.63;3.33;;;14.40;99.90;;;;;;5064408;28;21312;-78
2021/08/28 10:11:56;;;;;;;3.20;2.70;;;14.40;99.90;;;;;;5048704;28;20661;-78
2021/08/28 10:14:24;;;;;;;3.10;2.80;;;14.40;99.90;;;;;;5049743;28;20618;-78
2021/08/28 10:16:52;;;;;;;3.33;3.13;;;14.40;99.90;;;;;;5056410;28;20620;-79
2021/08/28 10:19:20;;;;;;;2.80;2.60;;;14.40;99.90;;;;;;5049873;28;21075;-79
2021/08/28 10:21:50;;;;;;;2.90;2.70;;;14.30;99.90;;;;;;5048963;28;21230;-79
2021/08/28 10:24:18;;;;;;;3.03;2.83;;;14.30;99.90;;;;;;5050019;28;20614;-79
2021/08/28 10:26:45;;;;;;;3.17;2.80;;;14.40;99.90;;;;;;5053754;28;20626;-78
2021/08/28 10:29:14;;;;;;;3.20;3.00;;;14.30;99.90;;;;;;5053846;28;20614;-78
2021/08/28 10:31:41;;;;;;;2.97;2.67;;;14.40;99.90;;;;;;5053269;28;20626;-78
2021/08/28 10:34:10;;;;;;;3.10;2.80;;;14.40;99.90;;;;;;5053271;28;20617;-78
2021/08/28 10:36:37;;;;;;;3.40;3.10;;;14.40;99.90;;;;;;5053211;28;20725;-78
2021/08/28 10:39:06;;;;;;;3.13;2.93;;;14.50;99.90;;;;;;5053258;28;20701;-78
2021/08/28 10:41:35;;;;;;;3.23;3.07;;;14.50;99.90;;;;;;5052497;28;20645;-78
2021/08/28 10:44:03;;;;;;;2.87;2.67;;;14.20;99.90;;;;;;5053372;28;20618;-78
2021/08/28 10:46:33;;;;;;;2.93;2.50;;;14.20;99.90;;;;;;5053200;28;20715;-78
2021/08/28 10:49:03;;;;;;;2.10;2.00;;;14.10;99.90;;;;;;5053303;28;20630;-78
2021/08/28 10:51:34;;;;;;;2.60;2.40;;;14.10;99.90;;;;;;5052291;28;20991;-78
2021/08/28 10:54:04;;;;;;;2.60;2.40;;;14.20;99.90;;;;;;5053001;28;20602;-78
2021/08/28 10:56:37;;;;;;;1.70;1.60;;;14.50;99.90;;;;;;5065016;28;20625;-77
2021/08/28 10:59:21;;;;;;;2.10;2.00;;;14.60;99.90;;;;;;5072968;28;20605;-78
2021/08/28 11:01:53;;;;;;;3.13;2.83;;;14.60;99.90;;;;;;5071933;28;20623;-78
2021/08/28 11:04:37;;;;;;;3.20;2.90;;;14.40;99.90;;;;;;5073194;28;20618;-78
2021/08/28 11:07:21;;;;;;;2.53;2.33;;;14.60;99.90;;;;;;5072735;28;20613;-78
2021/08/28 11:10:11;;;;;;;2.23;2.13;;;14.80;99.90;;;;;;5064706;28;20623;-78
2021/08/28 11:12:55;;;;;;;2.30;2.10;;;15.10;99.90;;;;;;5052233;28;20606;-78
2021/08/28 11:15:52;;;;;;;2.17;2.07;;;15.30;99.90;;;;;;5052886;28;20610;-78
2021/08/28 11:18:45;;;;;;;2.80;2.60;;;15.60;99.90;;;;;;5052854;28;20642;-78
2021/08/28 11:21:13;;;;;;;2.77;2.53;;;15.90;99.90;;;;;;5052373;28;21175;-78
2021/08/28 11:23:45;;;;;;;2.60;2.40;;;15.80;99.90;;;;;;5059919;28;21008;-78
2021/08/28 11:26:13;;;;;;;1.77;1.67;;;16.00;99.90;;;;;;5072605;28;20669;-79
2021/08/28 11:28:42;;;;;;;2.80;2.60;;;16.40;99.90;;;;;;5072543;28;20616;-78
2021/08/28 11:31:11;;;;;;;2.43;2.23;;;16.60;99.90;;;;;;5071877;28;20957;-78
2021/08/28 11:33:39;;;;;;;1.57;1.47;;;16.80;99.90;;;;;;5057780;28;20634;-79
2021/08/28 11:36:07;;;;;;;1.80;1.70;;;17.10;99.90;;;;;;5052581;28;20641;-78
2021/08/28 11:38:40;;;;;;;1.83;1.73;;;17.20;99.90;;;;;;5052116;28;20721;-78
2021/08/28 11:41:11;;;;;;;1.80;1.70;;;16.90;98.40;;;;;;5050432;28;20610;-78
2021/08/28 11:43:40;;;;;;;1.73;1.63;;;16.40;97.60;;;;;;5051346;28;20646;-79
2021/08/28 11:46:10;;;;;;;2.23;1.90;;;16.50;99.10;;;;;;5052632;28;20624;-78
2021/08/28 11:48:39;;;;;;;1.93;1.70;;;16.50;99.00;;;;;;5052402;28;20625;-78
2021/08/28 11:51:11;;;;;;;1.50;1.40;;;16.40;99.40;;;;;;5051906;28;20626;-78
2021/08/28 11:53:40;;;;;;;1.47;1.37;;;16.60;99.10;;;;;;5051467;28;20707;-78
2021/08/28 11:56:14;;;;;;;1.10;1.10;;;16.70;98.70;;;;;;5051773;28;20651;-79
2021/08/28 11:58:52;;;;;;;1.73;1.63;;;16.50;97.90;;;;;;5052083;28;20617;-78
2021/08/28 12:01:30;;;;;;;2.73;1.60;;;16.30;97.60;;;;;;5051987;28;21034;-79
2021/08/28 12:04:00;;;;;;;1.60;1.50;;;16.60;98.40;;;;;;5057798;28;20667;-78
2021/08/28 12:06:28;;;;;;;1.43;1.33;;;16.60;98.30;;;;;;5066415;28;20616;-78
2021/08/28 12:08:55;;;;;;;2.27;2.07;;;16.60;98.50;;;;;;5051717;28;20954;-79
2021/08/28 12:11:24;;;;;;;1.57;1.47;;;16.70;97.30;;;;;;5062293;28;20621;-79
2021/08/28 12:13:54;;;;;;;1.47;1.37;;;16.60;97.70;;;;;;5079024;28;20628;-80
2021/08/28 12:16:26;;;;;;;1.60;1.50;;;16.50;98.00;;;;;;5060426;28;20629;-80
2021/08/28 12:19:12;;;;;;;3.00;2.80;;;16.50;99.10;;;;;;5070612;28;20621;-80
2021/08/28 12:21:40;;;;;;;3.13;1.70;;;16.60;98.50;;;;;;5070735;28;20702;-79
2021/08/28 12:24:19;;;;;;;1.73;1.63;;;16.50;98.80;;;;;;5070833;28;20691;-80
2021/08/28 12:26:52;;;;;;;1.80;1.70;;;16.40;97.80;;;;;;5070524;28;20667;-80
2021/08/28 12:29:27;;;;;;;1.80;1.70;;;16.40;98.40;;;;;;5071035;28;20618;-80
2021/08/28 12:31:55;;;;;;;1.60;1.50;;;16.40;97.30;;;;;;5070862;28;20606;-79
2021/08/28 12:34:24;;;;;;;1.90;1.80;;;16.50;98.10;;;;;;5051498;28;20625;-79
2021/08/28 12:36:51;;;;;;;2.40;2.30;;;16.70;97.90;;;;;;5051606;28;20619;-79
2021/08/28 12:39:19;;;;;;;2.50;2.30;;;16.80;97.60;;;;;;5051873;28;21151;-80
2021/08/28 12:41:46;;;;;;;2.40;2.07;;;16.90;97.20;;;;;;5049236;28;20736;-79
2021/08/28 12:44:17;;;;;;;2.30;2.20;;;16.90;97.20;;;;;;5050647;28;20784;-80
2021/08/28 12:46:47;;;;;;;1.80;1.70;;;16.80;95.90;;;;;;5050885;28;20617;-80
2021/08/28 12:49:17;;;;;;;2.30;2.20;;;16.80;97.30;;;;;;5051142;28;20959;-79
2021/08/28 12:51:56;;;;;;;2.37;2.17;;;16.80;96.50;;;;;;5055009;28;20616;-79
2021/08/28 12:54:26;;;;;;;2.50;2.33;;;16.50;96.70;;;;;;5070372;28;20643;-80
2021/08/28 12:57:00;;;;;;;2.70;2.30;;;16.70;96.70;;;;;;5056410;28;20711;-79
2021/08/28 12:59:29;;;;;;;1.83;1.73;;;16.50;96.50;;;;;;5051132;28;20659;-79
2021/08/28 13:01:58;;;;;;;7.20;6.43;;;16.20;97.30;;;;;;5050328;28;20606;-79